Kimper, Kentucky
Current Conditions -  °F | °C
As of 8:15 PM on Monday 22 Dec 2014 (Local Time) from KPBX Reporting Station
Scattered Clouds Scattered Clouds  
Wind Chill: 52°   Ceiling: Unl
Heat Index: 52°   Visibility: 10mi
Dew Point: 40°   Wind: 8mph
Humidity: 63%   Direction: 140°SE
Pressure: 29.85"   Gusts: NA
Location:  37.5°N, 82.35°W
Report Text: KPBX 230115Z AUTO 14007KT 10SM SCT065 SCT080 11/04 A2985 RMK AO2 T01120043
Loading
Personal Weather Stations






























Interactive Weather Map New forecast layout! Learn more

10-Day Weather Forecast

Advertisements
Track Severe Weather on mobile